Time;durP1;ratioP1;P1;durP2;ratioP2;P2;SDS_P1;SDS_P2;PMS_P1;PMS_P2;Temp;Humidity;BMP_temperature;BMP_pressure;BME280_temperature;BME280_humidity;BME280_pressure;Samples;Min_cycle;Max_cycle;Signal;HPM_P1;HPM_P2
2022/07/26 00:01:41;;;;;;;;;;;;;;;18.58;58.26;100500.78;5039628;28;1187;-56
2022/07/26 00:04:06;;;;;;;;;;;;;;;14.94;65.73;100491.06;5039580;28;1969;-54
2022/07/26 00:06:32;;;;;;;;;;;;;;;16.86;55.84;100491.47;5042925;28;1045;-53
2022/07/26 00:08:57;;;;;;;;;;;;;;;17.09;53.10;100487.22;5040198;28;1009;-53
2022/07/26 00:11:24;;;;;;;;;;;;;;;18.05;54.65;100490.66;5038211;28;1163;-53
2022/07/26 00:13:50;;;;;;;;;;;;;;;14.99;61.32;100489.16;5040380;28;1073;-52
2022/07/26 00:16:15;;;;;;;;;;;;;;;17.70;59.58;100498.91;5039298;28;1140;-54
2022/07/26 00:18:40;;;;;;;;;;;;;;;18.41;57.64;100484.75;5040023;28;1151;-52
2022/07/26 00:21:06;;;;;;;;;;;;;;;15.32;64.79;100488.94;5043739;28;2816;-53
2022/07/26 00:23:31;;;;;;;;;;;;;;;18.55;59.25;100493.13;5038815;28;2311;-53
2022/07/26 00:25:57;;;;;;;;;;;;;;;16.05;62.95;100479.66;5037470;28;1231;-53
2022/07/26 00:28:22;;;;;;;;;;;;;;;16.38;59.26;100483.69;5039320;28;1057;-51
2022/07/26 00:30:47;;;;;;;;;;;;;;;18.10;57.86;100480.41;5042011;28;966;-51
2022/07/26 00:33:13;;;;;;;;;;;;;;;14.70;63.38;100486.06;5042344;28;990;-51
2022/07/26 00:35:38;;;;;;;;;;;;;;;17.86;60.04;100485.00;5038769;28;1050;-48
2022/07/26 00:38:04;;;;;;;;;;;;;;;17.34;60.85;100479.94;5039159;28;1014;-51
2022/07/26 00:40:29;;;;;;;;;;;;;;;15.84;63.73;100478.88;5041590;28;985;-52
2022/07/26 00:42:55;;;;;;;;;;;;;;;18.62;59.73;100477.88;5045207;28;1164;-51
2022/07/26 00:45:20;;;;;;;;;;;;;;;15.45;64.13;100482.13;5038767;28;1914;-50
2022/07/26 00:47:46;;;;;;;;;;;;;;;16.51;58.18;100474.03;5038279;28;1227;-50
2022/07/26 00:50:12;;;;;;;;;;;;;;;17.05;53.97;100466.91;5035150;28;2517;-50
2022/07/26 00:52:40;;;;;;;;;;;;;;;17.88;55.25;100480.03;5038496;28;1200;-51
2022/07/26 00:55:06;;;;;;;;;;;;;;;15.74;59.82;100464.03;5038412;28;1538;-51
2022/07/26 00:57:32;;;;;;;;;;;;;;;16.54;59.35;100464.44;5038709;28;1006;-49
2022/07/26 00:59:59;;;;;;;;;;;;;;;18.10;57.64;100463.91;5038168;28;1116;-49
2022/07/26 01:02:25;;;;;;;;;;;;;;;14.79;65.88;100464.47;5038287;28;1009;-52
2022/07/26 01:04:50;;;;;;;;;;;;;;;18.27;60.07;100468.09;5038405;28;1914;-52
2022/07/26 01:07:16;;;;;;;;;;;;;;;16.69;61.13;100463.53;5041049;28;974;-53
2022/07/26 01:09:41;;;;;;;;;;;;;;;16.00;63.08;100466.75;5040463;28;1068;-52
2022/07/26 01:12:07;;;;;;;;;;;;;;;18.32;59.19;100468.06;5038468;28;990;-52
2022/07/26 01:14:33;;;;;;;;;;;;;;;14.93;64.13;100465.63;5038305;28;1010;-51
2022/07/26 01:16:58;;;;;;;;;;;;;;;17.64;61.28;100464.28;5043547;28;1187;-52
2022/07/26 01:19:24;;;;;;;;;;;;;;;17.34;59.84;100460.69;5041177;28;990;-52
2022/07/26 01:21:50;;;;;;;;;;;;;;;15.79;65.42;100459.66;5038444;28;2498;-53
2022/07/26 01:24:15;;;;;;;;;;;;;;;18.66;59.50;100460.78;5037045;28;1976;-51
2022/07/26 01:26:41;;;;;;;;;;;;;;;15.39;63.82;100457.47;5038010;28;962;-52
2022/07/26 01:29:06;;;;;;;;;;;;;;;17.50;62.39;100457.81;5037689;28;1060;-52
2022/07/26 01:31:32;;;;;;;;;;;;;;;18.21;58.89;100444.53;5037969;28;1140;-52
2022/07/26 01:33:57;;;;;;;;;;;;;;;15.51;67.65;100454.44;5037859;28;1093;-52
2022/07/26 01:36:22;;;;;;;;;;;;;;;18.72;60.57;100449.41;5038433;28;1033;-53
2022/07/26 01:38:48;;;;;;;;;;;;;;;15.98;63.59;100446.22;5020047;28;1105;-49
2022/07/26 01:41:13;;;;;;;;;;;;;;;16.99;63.02;100450.78;5039934;28;1160;-53
2022/07/26 01:43:39;;;;;;;;;;;;;;;18.39;59.64;100456.69;5038035;28;1905;-50
2022/07/26 01:46:06;;;;;;;;;;;;;;;14.83;65.43;100460.94;5038665;28;1180;-51
2022/07/26 01:48:31;;;;;;;;;;;;;;;16.77;56.33;100451.94;5037083;28;1041;-48
2022/07/26 01:50:56;;;;;;;;;;;;;;;17.07;53.05;100456.47;5035718;28;2423;-52
2022/07/26 01:53:22;;;;;;;;;;;;;;;18.11;55.59;100454.50;5042720;28;1371;-51
2022/07/26 01:55:47;;;;;;;;;;;;;;;17.63;54.19;100448.94;5042184;28;1009;-51
2022/07/26 01:58:13;;;;;;;;;;;;;;;17.46;52.35;100446.59;5041712;28;1286;-52
2022/07/26 02:00:38;;;;;;;;;;;;;;;17.43;51.34;100441.66;5037213;28;1001;-51
2022/07/26 02:03:04;;;;;;;;;;;;;;;17.38;50.01;100441.72;5037394;28;1255;-51
2022/07/26 02:05:29;;;;;;;;;;;;;;;17.31;49.69;100447.53;5037197;28;1910;-54
2022/07/26 02:07:55;;;;;;;;;;;;;;;17.43;49.80;100452.66;5036908;28;1108;-51
2022/07/26 02:10:20;;;;;;;;;;;;;;;16.35;55.73;100445.00;5037088;28;1014;-50
2022/07/26 02:12:45;;;;;;;;;;;;;;;16.68;58.24;100453.66;5037076;28;982;-51
2022/07/26 02:15:11;;;;;;;;;;;;;;;18.87;56.03;100444.78;5041343;28;963;-54
2022/07/26 02:17:37;;;;;;;;;;;;;;;15.17;62.86;100448.69;5038487;28;1029;-51
2022/07/26 02:20:03;;;;;;;;;;;;;;;18.01;59.27;100451.88;5034463;28;2588;-50
2022/07/26 02:22:28;;;;;;;;;;;;;;;17.89;58.92;100441.25;5034844;28;1157;-50
2022/07/26 02:24:53;;;;;;;;;;;;;;;15.69;62.47;100441.28;5039563;28;1910;-53
2022/07/26 02:27:19;;;;;;;;;;;;;;;17.08;54.35;100444.41;5036855;28;1489;-52
2022/07/26 02:29:44;;;;;;;;;;;;;;;17.18;52.31;100438.00;5036972;28;1056;-51
2022/07/26 02:32:10;;;;;;;;;;;;;;;17.53;52.48;100424.25;5037012;28;1018;-53
2022/07/26 02:34:35;;;;;;;;;;;;;;;16.32;59.09;100431.84;5033702;28;1033;-50
2022/07/26 02:37:01;;;;;;;;;;;;;;;16.92;60.42;100440.09;5036882;28;1069;-47
2022/07/26 02:39:26;;;;;;;;;;;;;;;19.07;57.28;100435.41;5036580;28;1441;-53
2022/07/26 02:41:54;;;;;;;;;;;;;;;15.22;64.02;100429.50;5036816;28;1191;-52
2022/07/26 02:44:20;;;;;;;;;;;;;;;16.88;56.39;100433.50;5036611;28;1914;-52
2022/07/26 02:46:46;;;;;;;;;;;;;;;17.22;52.96;100436.34;5036562;28;1009;-50
2022/07/26 02:49:11;;;;;;;;;;;;;;;18.00;54.65;100444.72;5036083;28;1025;-46
2022/07/26 02:51:36;;;;;;;;;;;;;;;15.09;61.99;100443.75;5035798;28;2692;-51
2022/07/26 02:54:02;;;;;;;;;;;;;;;17.69;58.91;100444.19;5036462;28;1247;-55
2022/07/26 02:56:28;;;;;;;;;;;;;;;18.41;58.25;100446.19;5036503;28;1077;-50
2022/07/26 02:58:53;;;;;;;;;;;;;;;15.54;63.91;100447.59;5039208;28;1069;-51
2022/07/26 03:01:19;;;;;;;;;;;;;;;17.04;54.94;100439.75;5036155;28;1113;-52
2022/07/26 03:03:44;;;;;;;;;;;;;;;17.98;56.04;100446.97;5037319;28;1983;-52
2022/07/26 03:06:09;;;;;;;;;;;;;;;15.21;61.42;100444.31;5036560;28;1073;-51
2022/07/26 03:08:35;;;;;;;;;;;;;;;17.47;60.21;100439.97;5036291;28;1216;-52
2022/07/26 03:11:00;;;;;;;;;;;;;;;18.50;57.63;100449.13;5036453;28;1022;-53
2022/07/26 03:13:26;;;;;;;;;;;;;;;15.01;65.35;100445.94;5035750;28;1033;-51
2022/07/26 03:15:51;;;;;;;;;;;;;;;18.38;59.67;100438.53;5036469;28;1042;-53
2022/07/26 03:18:17;;;;;;;;;;;;;;;16.17;62.61;100438.19;5037599;28;1248;-52
2022/07/26 03:20:42;;;;;;;;;;;;;;;16.85;62.62;100447.81;5052944;28;2476;-54
2022/07/26 03:23:07;;;;;;;;;;;;;;;18.67;58.86;100451.41;5037966;28;1100;-56
2022/07/26 03:25:33;;;;;;;;;;;;;;;14.92;64.74;100453.00;5035481;28;1905;-56
2022/07/26 03:27:58;;;;;;;;;;;;;;;18.21;60.89;100450.03;5036222;28;1009;-56
2022/07/26 03:30:24;;;;;;;;;;;;;;;16.90;61.65;100447.78;5035915;28;1072;-57
2022/07/26 03:32:49;;;;;;;;;;;;;;;15.90;61.99;100450.34;5035754;28;1164;-55
2022/07/26 03:35:15;;;;;;;;;;;;;;;17.10;54.61;100453.16;5018138;28;990;-57
2022/07/26 03:37:40;;;;;;;;;;;;;;;17.14;52.59;100449.84;5035909;28;1152;-57
2022/07/26 03:40:07;;;;;;;;;;;;;;;17.25;51.20;100454.16;5036072;28;1010;-57
2022/07/26 03:42:33;;;;;;;;;;;;;;;17.26;50.34;100453.06;5035979;28;1076;-57
2022/07/26 03:44:58;;;;;;;;;;;;;;;17.18;49.79;100450.91;5035508;28;1977;-58
2022/07/26 03:47:24;;;;;;;;;;;;;;;18.26;53.00;100442.53;5035836;28;1037;-57
2022/07/26 03:49:49;;;;;;;;;;;;;;;14.81;61.80;100440.41;5030464;28;2446;-61
2022/07/26 03:52:15;;;;;;;;;;;;;;;18.13;59.53;100456.97;5035895;28;1010;-56
2022/07/26 03:54:40;;;;;;;;;;;;;;;17.65;60.74;100443.94;5035750;28;1160;-55
2022/07/26 03:57:05;;;;;;;;;;;;;;;15.55;65.15;100447.31;5034266;28;1455;-56
2022/07/26 03:59:31;;;;;;;;;;;;;;;17.04;55.83;100457.06;5030775;28;1069;-56
2022/07/26 04:01:56;;;;;;;;;;;;;;;17.33;54.03;100450.00;5035405;28;846;-58
2022/07/26 04:04:22;;;;;;;;;;;;;;;17.36;53.45;100436.50;5033456;28;1905;-58
2022/07/26 04:06:47;;;;;;;;;;;;;;;17.51;52.46;100442.97;5041500;28;1068;-56
2022/07/26 04:09:13;;;;;;;;;;;;;;;17.43;51.80;100447.16;5035888;28;1224;-55
2022/07/26 04:11:39;;;;;;;;;;;;;;;17.49;51.53;100439.69;5032908;28;1481;-58
2022/07/26 04:14:04;;;;;;;;;;;;;;;17.55;51.10;100435.78;5032172;28;1013;-59
2022/07/26 04:16:30;;;;;;;;;;;;;;;17.63;51.04;100437.94;5037364;28;1014;-59
2022/07/26 04:18:55;;;;;;;;;;;;;;;17.55;51.15;100438.53;5038804;28;1124;-57
2022/07/26 04:21:21;;;;;;;;;;;;;;;17.61;51.27;100438.22;5033213;28;2373;-58
2022/07/26 04:23:46;;;;;;;;;;;;;;;17.69;51.40;100445.00;5036764;28;1983;-52
2022/07/26 04:26:14;;;;;;;;;;;;;;;17.69;51.40;100434.00;5038941;28;1092;-59
2022/07/26 04:28:40;;;;;;;;;;;;;;;15.83;62.81;100441.59;5039073;28;966;-57
2022/07/26 04:31:05;;;;;;;;;;;;;;;18.12;58.98;100441.59;5039120;28;1029;-57
2022/07/26 04:33:31;;;;;;;;;;;;;;;15.82;62.29;100434.44;5038982;28;1026;-59
2022/07/26 04:35:57;;;;;;;;;;;;;;;17.41;63.31;100438.38;5039341;28;994;-59
2022/07/26 04:38:22;;;;;;;;;;;;;;;18.00;59.51;100441.97;5038380;28;974;-56
2022/07/26 04:40:48;;;;;;;;;;;;;;;14.98;66.51;100448.38;5038605;28;1216;-57
2022/07/26 04:43:14;;;;;;;;;;;;;;;18.13;62.06;100444.06;5038927;28;1021;-59
2022/07/26 04:45:39;;;;;;;;;;;;;;;16.36;62.53;100446.66;5040130;28;1988;-58
2022/07/26 04:48:05;;;;;;;;;;;;;;;16.93;65.40;100447.25;5038861;28;1021;-58
2022/07/26 04:50:30;;;;;;;;;;;;;;;18.06;60.95;100443.59;5032603;28;2511;-58
2022/07/26 04:52:56;;;;;;;;;;;;;;;15.09;65.59;100451.97;5026764;28;1057;-57
2022/07/26 04:55:21;;;;;;;;;;;;;;;17.89;63.21;100448.66;5038707;28;1104;-59
2022/07/26 04:57:47;;;;;;;;;;;;;;;16.90;60.64;100451.38;5038213;28;1188;-59
2022/07/26 05:00:13;;;;;;;;;;;;;;;15.82;63.58;100449.00;5038428;28;1171;-58
2022/07/26 05:02:38;;;;;;;;;;;;;;;17.71;59.47;100442.81;5040749;28;1116;-60
2022/07/26 05:05:04;;;;;;;;;;;;;;;17.68;55.37;100443.34;5039003;28;1901;-58
2022/07/26 05:07:42;;;;;;;;;;;;;;;17.61;53.12;100451.13;5037954;28;1085;-59
2022/07/26 05:10:08;;;;;;;;;;;;;;;14.98;59.04;100440.16;5032198;28;1041;-58
2022/07/26 05:12:33;;;;;;;;;;;;;;;17.52;58.83;100442.69;5036209;28;1345;-59
2022/07/26 05:14:59;;;;;;;;;;;;;;;17.89;56.63;100444.00;5038353;28;1168;-58
2022/07/26 05:17:24;;;;;;;;;;;;;;;15.26;65.81;100446.22;5038238;28;974;-58
2022/07/26 05:19:50;;;;;;;;;;;;;;;18.43;60.98;100446.75;5044435;28;2632;-61
2022/07/26 05:22:15;;;;;;;;;;;;;;;15.94;63.22;100447.88;5043739;28;1026;-57
2022/07/26 05:24:40;;;;;;;;;;;;;;;16.46;61.64;100445.81;5044584;28;1980;-58
2022/07/26 05:27:06;;;;;;;;;;;;;;;17.91;58.92;100446.50;5038094;28;1101;-58
2022/07/26 05:29:31;;;;;;;;;;;;;;;14.59;64.79;100444.16;5037791;28;994;-57
2022/07/26 05:31:57;;;;;;;;;;;;;;;17.61;60.13;100445.63;5026228;28;1439;-58
2022/07/26 05:34:23;;;;;;;;;;;;;;;17.66;57.03;100440.09;5036857;28;994;-58
2022/07/26 05:36:49;;;;;;;;;;;;;;;17.55;54.31;100447.59;5038387;28;1144;-56
2022/07/26 05:39:14;;;;;;;;;;;;;;;17.56;52.53;100451.19;5037590;28;1394;-57
2022/07/26 05:41:40;;;;;;;;;;;;;;;17.47;51.28;100441.91;5046441;28;1021;-56
2022/07/26 05:44:06;;;;;;;;;;;;;;;17.44;50.35;100446.84;5046134;28;1983;-56
2022/07/26 05:46:31;;;;;;;;;;;;;;;17.41;49.84;100450.19;5042057;28;1085;-57
2022/07/26 05:48:56;;;;;;;;;;;;;;;17.41;49.44;100447.44;5041354;28;978;-56
2022/07/26 05:51:22;;;;;;;;;;;;;;;18.65;48.84;100443.44;5038700;28;2047;-57
2022/07/26 05:53:47;;;;;;;;;;;;;;;18.21;50.79;100439.00;5039441;28;1209;-58
2022/07/26 05:56:13;;;;;;;;;;;;;;;18.03;51.69;100441.41;5034701;28;1367;-58
2022/07/26 05:58:38;;;;;;;;;;;;;;;17.88;52.39;100441.53;5035876;28;1034;-58
2022/07/26 06:01:04;;;;;;;;;;;;;;;17.87;52.98;100435.22;5031799;28;1461;-58
2022/07/26 06:03:30;;;;;;;;;;;;;;;17.78;53.53;100440.53;5036959;28;1910;-56
2022/07/26 06:05:56;;;;;;;;;;;;;;;17.72;53.98;100430.66;5042061;28;1231;-56
2022/07/26 06:08:22;;;;;;;;;;;;;;;17.68;54.51;100432.34;5037324;28;1061;-59
2022/07/26 06:10:48;;;;;;;;;;;;;;;17.68;54.71;100432.34;5036835;28;1160;-57
2022/07/26 06:13:13;;;;;;;;;;;;;;;17.65;54.96;100434.88;5019282;28;1133;-58
2022/07/26 06:15:39;;;;;;;;;;;;;;;17.61;55.08;100432.72;5036464;28;1084;-59
2022/07/26 06:18:05;;;;;;;;;;;;;;;17.56;55.40;100429.19;5037107;28;1080;-57
2022/07/26 06:20:30;;;;;;;;;;;;;;;17.55;55.59;100433.03;5040356;28;1041;-63
2022/07/26 06:22:57;;;;;;;;;;;;;;;17.51;55.63;100423.72;5036726;28;1081;-56
2022/07/26 06:25:25;;;;;;;;;;;;;;;17.49;55.60;100420.44;5036759;28;1969;-58
2022/07/26 06:27:51;;;;;;;;;;;;;;;17.48;55.81;100418.81;5039033;28;935;-57
2022/07/26 06:30:16;;;;;;;;;;;;;;;17.47;55.87;100417.16;5040192;28;982;-59
2022/07/26 06:32:45;;;;;;;;;;;;;;;17.43;55.98;100420.50;5042659;28;1060;-57
2022/07/26 06:35:11;;;;;;;;;;;;;;;17.45;56.15;100421.03;5036402;28;1002;-59
2022/07/26 06:37:37;;;;;;;;;;;;;;;17.35;56.28;100421.13;5032158;28;1324;-58
2022/07/26 06:40:03;;;;;;;;;;;;;;;17.38;56.14;100428.78;5033414;28;1223;-57
2022/07/26 06:42:28;;;;;;;;;;;;;;;17.36;56.43;100425.50;5034305;28;1255;-58
2022/07/26 06:44:54;;;;;;;;;;;;;;;17.36;56.51;100416.44;5021360;28;1969;-59
2022/07/26 06:47:19;;;;;;;;;;;;;;;17.37;56.46;100418.88;5042005;28;1092;-57
2022/07/26 06:49:45;;;;;;;;;;;;;;;17.33;56.40;100417.81;5039890;28;1033;-56
2022/07/26 06:52:10;;;;;;;;;;;;;;;17.32;56.57;100418.09;5034069;28;1366;-57
2022/07/26 06:54:36;;;;;;;;;;;;;;;17.33;56.71;100423.31;5036128;28;1021;-58
2022/07/26 06:57:02;;;;;;;;;;;;;;;17.30;56.60;100421.16;5036424;28;1239;-56
2022/07/26 06:59:27;;;;;;;;;;;;;;;17.29;56.78;100425.00;5036212;28;1018;-62
2022/07/26 07:01:52;;;;;;;;;;;;;;;17.28;56.72;100417.88;5036072;28;1144;-62
2022/07/26 07:04:18;;;;;;;;;;;;;;;17.28;56.72;100420.63;5036039;28;1906;-60
2022/07/26 07:06:43;;;;;;;;;;;;;;;17.24;57.00;100411.31;5035735;28;1056;-59
2022/07/26 07:09:09;;;;;;;;;;;;;;;17.28;56.74;100415.13;5042077;28;1148;-58
2022/07/26 07:11:34;;;;;;;;;;;;;;;17.24;56.94;100422.31;5036228;28;990;-57
2022/07/26 07:14:01;;;;;;;;;;;;;;;17.22;56.81;100416.25;5033955;28;1148;-57
2022/07/26 07:16:27;;;;;;;;;;;;;;;17.22;56.75;100419.00;5035820;28;957;-56
2022/07/26 07:18:52;;;;;;;;;;;;;;;17.23;56.99;100415.97;5038637;28;1164;-56
2022/07/26 07:21:18;;;;;;;;;;;;;;;17.19;56.96;100423.16;5036371;28;1014;-55
2022/07/26 07:23:43;;;;;;;;;;;;;;;17.21;57.11;100417.41;5035002;28;1975;-57
2022/07/26 07:26:09;;;;;;;;;;;;;;;17.22;56.79;100419.00;5031290;28;1323;-55
2022/07/26 07:28:37;;;;;;;;;;;;;;;17.21;57.01;100417.41;5036025;28;911;-58
2022/07/26 07:31:03;;;;;;;;;;;;;;;17.19;57.13;100417.66;5018691;28;1482;-57
2022/07/26 07:33:28;;;;;;;;;;;;;;;17.18;56.75;100424.28;5037144;28;1145;-57
2022/07/26 07:35:54;;;;;;;;;;;;;;;17.20;56.98;100423.97;5035774;28;816;-55
2022/07/26 07:38:19;;;;;;;;;;;;;;;17.14;57.13;100414.97;5033161;28;1069;-56
2022/07/26 07:40:45;;;;;;;;;;;;;;;17.17;57.04;100414.38;5034693;28;1742;-56
2022/07/26 07:43:10;;;;;;;;;;;;;;;17.15;57.14;100416.56;5034405;28;1512;-56
2022/07/26 07:45:36;;;;;;;;;;;;;;;17.15;57.08;100418.53;5042411;28;1907;-56
2022/07/26 07:48:01;;;;;;;;;;;;;;;17.24;57.08;100416.81;5034283;28;1002;-57
2022/07/26 07:50:26;;;;;;;;;;;;;;;17.17;56.98;100408.09;5041765;28;1010;-57
2022/07/26 07:52:52;;;;;;;;;;;;;;;17.18;57.12;100412.44;5039122;28;1100;-55
2022/07/26 07:55:17;;;;;;;;;;;;;;;17.14;57.25;100412.22;5042727;28;1073;-55
2022/07/26 07:57:43;;;;;;;;;;;;;;;17.17;57.19;100425.38;5041547;28;1218;-56
2022/07/26 08:00:09;;;;;;;;;;;;;;;17.09;57.39;100410.31;5021924;28;1124;-57
2022/07/26 08:02:37;;;;;;;;;;;;;;;17.08;57.44;100402.34;5035908;28;1117;-59
2022/07/26 08:05:03;;;;;;;;;;;;;;;17.09;57.16;100404.81;5033871;28;1971;-59
2022/07/26 08:07:29;;;;;;;;;;;;;;;17.12;57.27;100408.09;5039225;28;1033;-59
2022/07/26 08:09:56;;;;;;;;;;;;;;;17.10;57.12;100403.72;5044345;28;1165;-57
2022/07/26 08:12:21;;;;;;;;;;;;;;;17.10;57.13;100406.47;5041502;28;1008;-60
2022/07/26 08:14:46;;;;;;;;;;;;;;;17.12;57.11;100405.34;5041489;28;1311;-61
2022/07/26 08:17:12;;;;;;;;;;;;;;;17.08;57.25;100397.69;5030353;28;1064;-60
2022/07/26 08:19:37;;;;;;;;;;;;;;;17.09;57.16;100396.56;5039076;28;1077;-58
2022/07/26 08:22:03;;;;;;;;;;;;;;;17.12;57.24;100397.13;5041114;28;1005;-59
2022/07/26 08:24:28;;;;;;;;;;;;;;;17.06;57.22;100399.91;5042843;28;1906;-58
2022/07/26 08:26:54;;;;;;;;;;;;;;;17.10;57.13;100395.47;5041075;28;1180;-58
2022/07/26 08:29:19;;;;;;;;;;;;;;;17.10;57.27;100392.72;5039637;28;993;-60
2022/07/26 08:31:45;;;;;;;;;;;;;;;17.09;57.32;100393.81;5042914;28;1152;-60
2022/07/26 08:34:10;;;;;;;;;;;;;;;17.10;57.20;100395.47;5047287;28;1006;-60
2022/07/26 08:36:36;;;;;;;;;;;;;;;17.06;57.23;100394.41;5046955;28;1053;-60
2022/07/26 08:39:01;;;;;;;;;;;;;;;17.05;57.10;100398.25;5036435;28;1034;-59
2022/07/26 08:41:27;;;;;;;;;;;;;;;17.09;57.01;100393.00;5043115;28;954;-60
2022/07/26 08:43:52;;;;;;;;;;;;;;;17.04;57.10;100390.28;5041400;28;1902;-60
2022/07/26 08:46:18;;;;;;;;;;;;;;;17.04;57.04;100382.88;5019906;28;1113;-60
2022/07/26 08:48:44;;;;;;;;;;;;;;;17.05;57.42;100395.50;5020074;28;1375;-59
2022/07/26 08:51:09;;;;;;;;;;;;;;;17.09;56.99;100391.06;5036539;28;1061;-60
2022/07/26 08:53:35;;;;;;;;;;;;;;;17.06;57.41;100388.91;5039463;28;1085;-59
2022/07/26 08:56:01;;;;;;;;;;;;;;;17.04;57.39;100382.06;5035932;28;1065;-59
2022/07/26 08:58:26;;;;;;;;;;;;;;;17.05;57.26;100390.00;5040154;28;1220;-60
2022/07/26 09:01:05;;;;;;;;;;;;;;;17.02;57.35;100385.09;5036134;28;1247;-60
2022/07/26 09:03:30;;;;;;;;;;;;;;;17.02;57.38;100370.53;5036973;28;1191;-60
2022/07/26 09:05:59;;;;;;;;;;;;;;;17.04;57.16;100387.53;5038376;28;1986;-60
2022/07/26 09:08:25;;;;;;;;;;;;;;;17.01;57.55;100364.25;5038105;28;1041;-59
2022/07/26 09:10:51;;;;;;;;;;;;;;;17.02;57.47;100374.09;5038078;28;1077;-60
2022/07/26 09:13:16;;;;;;;;;;;;;;;17.03;57.39;100373.00;5038165;28;986;-61
2022/07/26 09:15:42;;;;;;;;;;;;;;;16.99;57.51;100369.19;5037881;28;1219;-59
2022/07/26 09:18:07;;;;;;;;;;;;;;;17.01;57.32;100375.22;5038039;28;1005;-59
2022/07/26 09:20:33;;;;;;;;;;;;;;;17.02;57.67;100370.53;5022331;28;1153;-59
2022/07/26 09:22:58;;;;;;;;;;;;;;;16.96;57.67;100372.50;5038007;28;1026;-61
2022/07/26 09:25:24;;;;;;;;;;;;;;;17.02;57.48;100368.59;5037726;28;1906;-59
2022/07/26 09:27:50;;;;;;;;;;;;;;;17.01;57.47;100374.38;5031586;28;1002;-59
2022/07/26 09:30:15;;;;;;;;;;;;;;;17.01;57.38;100367.00;5037656;28;1152;-59
2022/07/26 09:32:41;;;;;;;;;;;;;;;17.07;57.82;100368.56;5037585;28;1113;-59
2022/07/26 09:35:16;;;;;;;;;;;;;;;17.01;57.63;100363.41;5012952;28;1137;-60
2022/07/26 09:37:42;;;;;;;;;;;;;;;17.07;57.93;100371.31;5035933;28;1100;-59
2022/07/26 09:40:11;;;;;;;;;;;;;;;17.04;58.18;100366.41;5033751;28;1076;-59
2022/07/26 09:42:36;;;;;;;;;;;;;;;17.15;58.74;100371.81;5031874;28;1187;-59
2022/07/26 09:45:02;;;;;;;;;;;;;;;17.07;58.83;100371.31;5043218;28;1915;-57
2022/07/26 09:47:34;;;;;;;;;;;;;;;17.04;58.73;100366.41;5041577;28;1085;-60
2022/07/26 09:50:12;;;;;;;;;;;;;;;17.07;58.44;100359.53;5034116;28;1101;-58
2022/07/26 09:52:37;;;;;;;;;;;;;;;17.06;58.33;100360.63;5038877;28;1201;-57
2022/07/26 09:55:03;;;;;;;;;;;;;;;17.02;58.23;100349.38;5038242;28;873;-58
2022/07/26 09:57:29;;;;;;;;;;;;;;;17.04;58.62;100352.69;5038278;28;1140;-57
2022/07/26 09:59:54;;;;;;;;;;;;;;;17.07;58.71;100360.34;5037614;28;1061;-56
2022/07/26 10:02:20;;;;;;;;;;;;;;;17.04;58.60;100358.16;5013214;28;1125;-58
2022/07/26 10:04:45;;;;;;;;;;;;;;;17.03;58.53;100352.97;5030969;28;1921;-56
2022/07/26 10:07:11;;;;;;;;;;;;;;;17.05;58.53;100348.81;5016656;28;1228;-56
2022/07/26 10:09:41;;;;;;;;;;;;;;;17.16;58.62;100355.03;5039515;28;1030;-57
2022/07/26 10:12:07;;;;;;;;;;;;;;;17.24;59.12;100345.38;5023960;28;1010;-59
2022/07/26 10:14:46;;;;;;;;;;;;;;;17.15;58.93;100352.59;5038472;28;1064;-58
2022/07/26 10:17:30;;;;;;;;;;;;;;;17.13;58.78;100332.84;5039125;28;1176;-56
2022/07/26 10:20:00;;;;;;;;;;;;;;;17.08;58.75;100333.69;5036331;28;1018;-57
2022/07/26 10:22:29;;;;;;;;;;;;;;;17.10;58.62;100334.22;5038692;28;1133;-57
2022/07/26 10:24:55;;;;;;;;;;;;;;;17.12;58.48;100344.91;5036077;28;1992;-61
2022/07/26 10:27:50;;;;;;;;;;;;;;;17.13;58.25;100330.09;5044272;28;981;-60
2022/07/26 10:30:18;;;;;;;;;;;;;;;17.08;58.39;100323.53;5011146;28;1163;-58
2022/07/26 10:33:04;;;;;;;;;;;;;;;17.09;58.48;100319.66;5044485;28;1014;-58
2022/07/26 10:35:32;;;;;;;;;;;;;;;17.13;58.59;100319.09;5036110;28;1851;-57
2022/07/26 10:38:07;;;;;;;;;;;;;;;17.20;58.88;100316.84;5036172;28;1116;-57
2022/07/26 10:40:32;;;;;;;;;;;;;;;17.18;58.80;100314.38;5038750;28;1041;-58
2022/07/26 10:43:10;;;;;;;;;;;;;;;17.17;58.86;100328.41;5040618;28;1085;-59
2022/07/26 10:45:36;;;;;;;;;;;;;;;17.11;58.75;100319.38;5037573;28;1910;-59
2022/07/26 10:48:28;;;;;;;;;;;;;;;17.10;58.81;100315.00;5038039;28;1179;-59
2022/07/26 10:50:53;;;;;;;;;;;;;;;17.15;58.81;100308.63;5029302;28;1197;-59
2022/07/26 10:53:19;;;;;;;;;;;;;;;17.14;58.92;100318.81;5041668;28;1104;-58
2022/07/26 10:55:48;;;;;;;;;;;;;;;17.10;58.65;100318.53;5041883;28;994;-58
2022/07/26 10:58:14;;;;;;;;;;;;;;;17.12;58.67;100318.25;5046270;28;1113;-57
2022/07/26 11:00:39;;;;;;;;;;;;;;;17.07;58.68;100316.38;5046685;28;952;-60
2022/07/26 11:03:05;;;;;;;;;;;;;;;17.09;58.69;100303.16;5036520;28;1141;-56
2022/07/26 11:05:31;;;;;;;;;;;;;;;17.14;58.45;100299.56;5031666;28;1972;-57
2022/07/26 11:07:56;;;;;;;;;;;;;;;17.13;58.53;100305.34;5036155;28;1019;-61
2022/07/26 11:10:23;;;;;;;;;;;;;;;17.10;58.59;100302.06;5036835;28;1069;-60
2022/07/26 11:12:58;;;;;;;;;;;;;;;17.13;58.43;100299.88;5038872;28;1073;-59
2022/07/26 11:15:24;;;;;;;;;;;;;;;17.05;58.53;100296.59;5037533;28;1045;-57
2022/07/26 11:17:49;;;;;;;;;;;;;;;17.05;58.56;100299.34;5038010;28;960;-58
2022/07/26 11:20:24;;;;;;;;;;;;;;;17.08;58.42;100293.31;5036240;28;1065;-58
2022/07/26 11:22:49;;;;;;;;;;;;;;;17.07;58.48;100288.09;5029444;28;1120;-60
2022/07/26 11:25:19;;;;;;;;;;;;;;;17.18;58.37;100292.41;5037324;28;1941;-60
2022/07/26 11:28:03;;;;;;;;;;;;;;;17.19;58.88;100282.22;5048429;28;1085;-58
2022/07/26 11:30:29;;;;;;;;;;;;;;;17.18;58.54;100281.41;5038783;28;1252;-58
2022/07/26 11:32:57;;;;;;;;;;;;;;;17.15;58.48;100272.91;5045741;28;1029;-59
2022/07/26 11:35:23;;;;;;;;;;;;;;;17.15;58.48;100273.72;5049217;28;947;-59
2022/07/26 11:37:57;;;;;;;;;;;;;;;17.12;58.67;100273.50;5044619;28;1058;-59
2022/07/26 11:40:58;;;;;;;;;;;;;;;17.14;58.36;100268.50;5039151;28;955;-59
2022/07/26 11:43:23;;;;;;;;;;;;;;;17.10;58.54;100274.59;4964780;28;1595;-55
2022/07/26 11:45:52;;;;;;;;;;;;;;;17.09;58.43;100272.13;5024804;28;1930;-59
2022/07/26 11:48:17;;;;;;;;;;;;;;;17.12;58.42;100276.25;5042178;28;1081;-61
2022/07/26 11:50:45;;;;;;;;;;;;;;;17.12;58.34;100270.75;5040722;28;998;-60
2022/07/26 11:53:20;;;;;;;;;;;;;;;17.14;58.24;100268.50;5039477;28;1045;-58
2022/07/26 11:55:46;;;;;;;;;;;;;;;17.13;58.16;100267.72;5040145;28;958;-59
2022/07/26 11:58:11;;;;;;;;;;;;;;;17.13;58.04;100255.91;5045854;28;1025;-57
2022/07/26 12:00:37;;;;;;;;;;;;;;;17.13;58.31;100261.41;5031808;28;1093;-58
2022/07/26 12:03:02;;;;;;;;;;;;;;;17.10;58.28;100249.88;5043782;28;989;-60
2022/07/26 12:05:29;;;;;;;;;;;;;;;17.10;58.44;100249.88;5044991;28;1913;-56
2022/07/26 12:07:55;;;;;;;;;;;;;;;17.09;58.28;100253.72;5042910;28;950;-57
2022/07/26 12:10:21;;;;;;;;;;;;;;;17.07;58.15;100250.47;5041750;28;974;-57
2022/07/26 12:12:46;;;;;;;;;;;;;;;17.08;58.20;100243.03;5023801;28;1097;-56
2022/07/26 12:15:14;;;;;;;;;;;;;;;17.12;58.02;100244.09;5039936;28;970;-56
2022/07/26 12:17:39;;;;;;;;;;;;;;;17.11;58.13;100245.22;5039180;28;1116;-59
2022/07/26 12:20:11;;;;;;;;;;;;;;;17.09;57.95;100239.19;5020844;28;1104;-57
2022/07/26 12:22:37;;;;;;;;;;;;;;;17.07;58.33;100238.66;5040099;28;1101;-57
2022/07/26 12:25:02;;;;;;;;;;;;;;;17.08;58.26;100243.88;5021066;28;1984;-57
2022/07/26 12:27:29;;;;;;;;;;;;;;;17.07;57.82;100236.72;5048095;28;951;-57
2022/07/26 12:29:55;;;;;;;;;;;;;;;17.09;57.85;100237.22;5045845;28;882;-54
2022/07/26 12:32:31;;;;;;;;;;;;;;;17.05;58.02;100227.94;5026715;28;1460;-58
2022/07/26 12:35:01;;;;;;;;;;;;;;;17.04;58.07;100233.72;5039809;28;986;-58
2022/07/26 12:37:29;;;;;;;;;;;;;;;17.06;57.94;100232.31;5042093;28;997;-59
2022/07/26 12:39:59;;;;;;;;;;;;;;;17.05;57.94;100233.44;5042082;28;997;-57
2022/07/26 12:42:30;;;;;;;;;;;;;;;17.08;57.97;100230.13;5039570;28;1037;-56
2022/07/26 12:44:55;;;;;;;;;;;;;;;17.07;57.71;100233.97;5039952;28;2319;-57